createdAt,value
2022-08-29T00:01:26.203Z,98450.72
2022-08-29T00:03:31.292Z,98454.94
2022-08-29T00:05:41.934Z,98459.25
2022-08-29T00:07:47.624Z,98447.00
2022-08-29T00:09:52.453Z,98448.69
2022-08-29T00:11:57.377Z,98446.28
2022-08-29T00:14:02.638Z,98447.97
2022-08-29T00:16:08.875Z,98445.22
2022-08-29T00:18:14.073Z,98453.97
2022-08-29T00:20:21.529Z,98450.50
2022-08-29T00:22:36.676Z,98447.97
2022-08-29T00:24:41.784Z,98447.13
2022-08-29T00:26:46.801Z,98448.91
2022-08-29T00:28:51.679Z,98449.06
2022-08-29T00:30:56.704Z,98452.53
2022-08-29T00:33:01.644Z,98454.44
2022-08-29T00:35:09.486Z,98452.53
2022-08-29T00:37:14.429Z,98450.69
2022-08-29T00:39:23.794Z,98459.44
2022-08-29T00:41:29.023Z,98463.38
2022-08-29T00:43:36.769Z,98461.06
2022-08-29T00:45:58.123Z,98461.19
2022-08-29T00:48:07.995Z,98458.66
2022-08-29T00:50:21.758Z,98463.34
2022-08-29T00:52:33.854Z,98466.22
2022-08-29T00:54:43.834Z,98463.06
2022-08-29T00:56:49.740Z,98464.84
2022-08-29T00:58:58.575Z,98458.94
2022-08-29T01:01:03.719Z,98455.81
2022-08-29T01:03:09.223Z,98454.22
2022-08-29T01:05:18.034Z,98456.97
2022-08-29T01:07:23.267Z,98459.22
2022-08-29T01:09:30.073Z,98465.09
2022-08-29T01:11:50.984Z,98476.78
2022-08-29T01:13:56.830Z,98469.09
2022-08-29T01:16:02.179Z,98476.50
2022-08-29T01:18:09.020Z,98477.56
2022-08-29T01:20:22.756Z,98474.22
2022-08-29T01:22:58.327Z,98474.22
2022-08-29T01:25:10.273Z,98473.91
2022-08-29T01:27:16.746Z,98477.59
2022-08-29T01:29:21.619Z,98478.66
2022-08-29T01:31:31.731Z,98483.91
2022-08-29T01:33:56.971Z,98476.75
2022-08-29T01:36:01.834Z,98477.41
2022-08-29T01:38:06.745Z,98479.06
2022-08-29T01:40:15.957Z,98479.94
2022-08-29T01:42:23.673Z,98474.53
2022-08-29T01:44:28.525Z,98474.44
2022-08-29T01:46:36.453Z,98477.78
2022-08-29T01:48:42.362Z,98478.53
2022-08-29T01:50:47.468Z,98477.47
2022-08-29T01:52:52.145Z,98475.88
2022-08-29T01:54:57.049Z,98479.50
2022-08-29T01:57:08.578Z,98480.09
2022-08-29T01:59:18.568Z,98479.50
2022-08-29T02:01:27.153Z,98489.31
2022-08-29T02:03:32.724Z,98489.31
2022-08-29T02:05:37.597Z,98493.00
2022-08-29T02:07:42.519Z,98493.84
2022-08-29T02:09:47.928Z,98493.00
2022-08-29T02:11:54.447Z,98488.13
2022-08-29T02:14:03.593Z,98489.19
2022-08-29T02:16:08.893Z,98480.06
2022-08-29T02:18:14.156Z,98476.56
2022-08-29T02:20:19.570Z,98481.19
2022-08-29T02:22:24.396Z,98474.47
2022-08-29T02:24:29.355Z,98477.22
2022-08-29T02:26:34.487Z,98485.25
2022-08-29T02:28:41.780Z,98478.38
2022-08-29T02:30:55.854Z,98478.25
2022-08-29T02:33:01.911Z,98474.91
2022-08-29T02:35:10.448Z,98482.59
2022-08-29T02:37:16.290Z,98488.09
2022-08-29T02:39:21.117Z,98482.22
2022-08-29T02:41:26.325Z,98478.69
2022-08-29T02:43:31.283Z,98480.41
2022-08-29T02:45:38.764Z,98475.34
2022-08-29T02:47:46.239Z,98472.59
2022-08-29T02:49:51.736Z,98473.44
2022-08-29T02:51:56.754Z,98478.00
2022-08-29T02:54:02.258Z,98474.50
2022-08-29T02:56:07.113Z,98483.13
2022-08-29T02:58:15.081Z,98483.13
2022-08-29T03:00:23.202Z,98488.00
2022-08-29T03:02:28.109Z,98482.00
2022-08-29T03:04:35.564Z,98488.44
2022-08-29T03:06:40.495Z,98493.94
2022-08-29T03:08:45.387Z,98496.78
2022-08-29T03:10:50.207Z,98495.19
2022-08-29T03:12:55.153Z,98493.41
2022-08-29T03:15:00.078Z,98492.88
2022-08-29T03:17:05.077Z,98491.09
2022-08-29T03:19:09.891Z,98502.47
2022-08-29T03:21:22.611Z,98497.09
2022-08-29T03:23:27.488Z,98492.75
2022-08-29T03:25:32.529Z,98500.66
2022-08-29T03:27:38.196Z,98495.41
2022-08-29T03:29:43.078Z,98497.19
2022-08-29T03:31:48.022Z,98495.72
2022-08-29T03:33:53.033Z,98501.94
2022-08-29T03:35:57.936Z,98503.94
2022-08-29T03:38:05.386Z,98502.47
2022-08-29T03:40:13.277Z,98495.63
2022-08-29T03:42:18.154Z,98495.00
2022-08-29T03:44:23.274Z,98499.94
2022-08-29T03:46:28.481Z,98498.31
2022-08-29T03:48:33.891Z,98503.16
2022-08-29T03:50:38.773Z,98498.53
2022-08-29T03:52:44.171Z,98496.50
2022-08-29T03:54:51.642Z,98491.81
2022-08-29T03:56:56.652Z,98492.78
2022-08-29T03:59:02.044Z,98490.97
2022-08-29T04:01:07.238Z,98493.63
2022-08-29T04:03:12.239Z,98503.41
2022-08-29T04:05:19.305Z,98494.44
2022-08-29T04:07:24.243Z,98492.78
2022-08-29T04:09:29.143Z,98509.50
2022-08-29T04:11:36.692Z,98508.66
2022-08-29T04:13:41.700Z,98511.09
2022-08-29T04:15:46.642Z,98498.66
2022-08-29T04:17:54.510Z,98501.94
2022-08-29T04:19:59.554Z,98502.91
2022-08-29T04:22:04.705Z,98507.41
2022-08-29T04:24:09.739Z,98509.09
2022-08-29T04:26:35.819Z,98511.84
2022-08-29T04:28:43.759Z,98511.38
2022-08-29T04:30:51.372Z,98515.78
2022-08-29T04:32:59.643Z,98518.41
2022-08-29T04:35:04.581Z,98521.84
2022-08-29T04:37:09.486Z,98511.47
2022-08-29T04:39:15.186Z,98521.38
2022-08-29T04:41:20.020Z,98522.63
2022-08-29T04:43:24.939Z,98528.94
2022-08-29T04:45:33.434Z,98530.94
2022-08-29T04:47:38.746Z,98532.28
2022-08-29T04:49:44.218Z,98539.25
2022-08-29T04:51:49.188Z,98539.97
2022-08-29T04:53:54.570Z,98549.66
2022-08-29T04:56:00.360Z,98543.75
2022-08-29T04:58:06.536Z,98551.25
2022-08-29T05:00:18.388Z,98561.03
2022-08-29T05:02:26.219Z,98551.34
2022-08-29T05:04:31.105Z,98556.72
2022-08-29T05:06:36.035Z,98562.28
2022-08-29T05:08:43.381Z,98564.19
2022-08-29T05:10:49.281Z,98559.75
2022-08-29T05:12:54.085Z,98561.44
2022-08-29T05:14:59.687Z,98557.00
2022-08-29T05:17:04.517Z,98559.63
2022-08-29T05:19:15.570Z,98558.03
2022-08-29T05:21:27.327Z,98561.44
2022-08-29T05:23:32.177Z,98554.16
2022-08-29T05:25:37.051Z,98544.59
2022-08-29T05:27:44.510Z,98544.59
2022-08-29T05:29:51.485Z,98552.28
2022-08-29T05:31:56.253Z,98555.69
2022-08-29T05:34:01.686Z,98545.97
2022-08-29T05:36:23.844Z,98559.97
2022-08-29T05:38:28.737Z,98558.19
2022-08-29T05:40:34.324Z,98561.88
2022-08-29T05:42:39.376Z,98563.66
2022-08-29T05:44:44.220Z,98562.81
2022-08-29T05:46:49.180Z,98570.31
2022-08-29T05:48:53.986Z,98565.50
2022-08-29T05:50:58.836Z,98563.59
2022-08-29T05:53:06.237Z,98566.03
2022-08-29T05:55:11.782Z,98572.13
2022-08-29T05:57:19.967Z,98570.06
2022-08-29T05:59:24.795Z,98571.88
2022-08-29T06:01:32.667Z,98563.75
2022-08-29T06:03:38.061Z,98567.91
2022-08-29T06:05:43.752Z,98561.66
2022-08-29T06:07:50.847Z,98565.78
2022-08-29T06:09:58.306Z,98563.97
2022-08-29T06:12:10.834Z,98559.25
2022-08-29T06:14:16.612Z,98565.69
2022-08-29T06:16:23.390Z,98560.84
2022-08-29T06:18:35.508Z,98555.25
2022-08-29T06:20:41.683Z,98551.47
2022-08-29T06:22:46.490Z,98562.34
2022-08-29T06:24:55.124Z,98560.97
2022-08-29T06:27:06.289Z,98564.13
2022-08-29T06:29:12.729Z,98563.38
2022-08-29T06:31:21.019Z,98567.59
2022-08-29T06:33:25.904Z,98567.50
2022-08-29T06:35:30.840Z,98568.00
2022-08-29T06:37:36.067Z,98571.91
2022-08-29T06:39:40.631Z,98568.00
2022-08-29T06:41:46.539Z,98566.72
2022-08-29T06:44:06.483Z,98562.19
2022-08-29T06:46:12.582Z,98565.75
2022-08-29T06:48:17.698Z,98568.06
2022-08-29T06:50:22.352Z,98566.19
2022-08-29T06:52:27.910Z,98573.03
2022-08-29T06:54:33.137Z,98564.25
2022-08-29T06:56:38.078Z,98566.88
2022-08-29T06:58:43.927Z,98568.16
2022-08-29T07:00:54.238Z,98560.69
2022-08-29T07:02:59.352Z,98565.34
2022-08-29T07:05:04.385Z,98564.47
2022-08-29T07:07:09.309Z,98568.81
2022-08-29T07:09:15.169Z,98570.38
2022-08-29T07:11:20.579Z,98566.84
2022-08-29T07:13:25.498Z,98564.31
2022-08-29T07:15:30.387Z,98572.16
2022-08-29T07:17:37.893Z,98569.66
2022-08-29T07:19:42.980Z,98572.75
2022-08-29T07:21:48.957Z,98574.16
2022-08-29T07:23:55.190Z,98581.16
2022-08-29T07:26:09.862Z,98575.38
2022-08-29T07:28:14.795Z,98571.97
2022-08-29T07:30:20.886Z,98577.75
2022-08-29T07:32:26.202Z,98573.25
2022-08-29T07:34:34.079Z,98579.03
2022-08-29T07:36:39.469Z,98572.56
2022-08-29T07:38:44.349Z,98578.22
2022-08-29T07:40:49.332Z,98583.00
2022-08-29T07:42:54.346Z,98583.00
2022-08-29T07:44:59.192Z,98588.78
2022-08-29T07:47:04.274Z,98586.41
2022-08-29T07:49:09.249Z,98590.50
2022-08-29T07:51:20.240Z,98582.47
2022-08-29T07:53:25.184Z,98584.16
2022-08-29T07:55:30.195Z,98586.22
2022-08-29T07:57:36.929Z,98586.56
2022-08-29T07:59:44.745Z,98593.66
2022-08-29T08:01:49.770Z,98593.09
2022-08-29T08:03:55.086Z,98585.00
2022-08-29T08:06:03.893Z,98588.47
2022-08-29T08:08:15.623Z,98593.88
2022-08-29T08:10:21.207Z,98589.09
2022-08-29T08:12:27.172Z,98592.44
2022-08-29T08:14:34.798Z,98594.91
2022-08-29T08:16:44.224Z,98589.22
2022-08-29T08:18:50.300Z,98588.28
2022-08-29T08:20:55.121Z,98580.25
2022-08-29T08:23:00.169Z,98588.19
2022-08-29T08:25:08.457Z,98592.25
2022-08-29T08:27:13.487Z,98600.44
2022-08-29T08:29:18.711Z,98595.72
2022-08-29T08:31:24.259Z,98593.81
2022-08-29T08:33:29.392Z,98595.59
2022-08-29T08:37:39.024Z,98591.50
2022-08-29T08:39:44.209Z,98596.28
2022-08-29T08:41:58.374Z,98602.53
2022-08-29T08:44:07.366Z,98595.78
2022-08-29T08:46:12.478Z,98596.47
2022-08-29T08:48:19.483Z,98597.75
2022-08-29T08:50:29.992Z,98597.88
2022-08-29T08:52:42.735Z,98590.19
2022-08-29T08:54:54.187Z,98586.25
2022-08-29T08:57:08.799Z,98587.81
2022-08-29T08:59:17.697Z,98587.78
2022-08-29T09:01:26.733Z,98587.00
2022-08-29T09:03:55.753Z,98581.34
2022-08-29T09:06:13.291Z,98587.94
2022-08-29T09:08:29.184Z,98585.41
2022-08-29T09:10:43.868Z,98589.22
2022-08-29T09:12:59.048Z,98601.59
2022-08-29T09:15:13.570Z,98597.53
2022-08-29T09:17:24.752Z,98596.44
2022-08-29T09:19:29.795Z,98601.31
2022-08-29T09:21:41.428Z,98595.09
2022-08-29T09:23:49.666Z,98598.06
2022-08-29T09:25:54.848Z,98599.22
2022-08-29T09:28:02.430Z,98591.84
2022-08-29T09:30:12.016Z,98594.00
2022-08-29T09:32:22.301Z,98594.25
2022-08-29T09:34:57.469Z,98597.38
2022-08-29T09:37:02.474Z,98597.97
2022-08-29T09:39:26.013Z,98594.22
2022-08-29T09:41:31.370Z,98596.78
2022-08-29T09:43:52.799Z,98588.38
2022-08-29T09:46:21.124Z,98589.25
2022-08-29T09:48:26.071Z,98591.34
2022-08-29T09:50:31.554Z,98596.94
2022-08-29T09:52:37.101Z,98590.63
2022-08-29T09:54:42.468Z,98587.00
2022-08-29T09:56:55.671Z,98586.16
2022-08-29T09:59:07.283Z,98580.44
2022-08-29T10:01:19.233Z,98577.22
2022-08-29T10:03:36.116Z,98579.50
2022-08-29T10:05:45.109Z,98585.22
2022-08-29T10:07:51.500Z,98583.72
2022-08-29T10:09:59.133Z,98582.69
2022-08-29T10:12:10.917Z,98584.13
2022-08-29T10:14:25.815Z,98578.66
2022-08-29T10:16:40.452Z,98586.78
2022-08-29T10:18:50.134Z,98583.41
2022-08-29T10:21:07.816Z,98585.34
2022-08-29T10:23:22.451Z,98577.09
2022-08-29T10:25:37.605Z,98577.50
2022-08-29T10:27:47.384Z,98575.81
2022-08-29T10:30:08.820Z,98574.97
2022-08-29T10:32:23.374Z,98570.63
2022-08-29T10:34:43.961Z,98576.25
2022-08-29T10:36:57.270Z,98573.41
2022-08-29T10:39:10.192Z,98571.97
2022-08-29T10:41:27.779Z,98565.53
2022-08-29T10:43:40.151Z,98564.09
2022-08-29T10:46:07.413Z,98568.66
2022-08-29T10:48:14.611Z,98575.50
2022-08-29T10:50:46.250Z,98568.63
2022-08-29T10:53:00.222Z,98562.59
2022-08-29T10:55:16.410Z,98570.88
2022-08-29T10:57:34.260Z,98568.75
2022-08-29T10:59:52.566Z,98570.41
2022-08-29T11:02:08.699Z,98566.25
2022-08-29T11:04:20.445Z,98572.00
2022-08-29T11:06:29.867Z,98563.25
2022-08-29T11:08:38.965Z,98564.34
2022-08-29T11:10:49.906Z,98564.56
2022-08-29T11:12:59.677Z,98561.09
2022-08-29T11:15:08.212Z,98559.09
2022-08-29T11:17:17.605Z,98562.03
2022-08-29T11:19:30.269Z,98560.59
2022-08-29T11:21:40.599Z,98555.66
2022-08-29T11:23:47.507Z,98556.19
2022-08-29T11:25:53.426Z,98555.72
2022-08-29T11:28:09.486Z,98554.75
2022-08-29T11:30:20.878Z,98548.34
2022-08-29T11:32:36.640Z,98555.88
2022-08-29T11:34:58.860Z,98549.94
2022-08-29T11:37:30.175Z,98551.53
2022-08-29T11:39:59.236Z,98553.91
2022-08-29T11:42:08.443Z,98543.09
2022-08-29T11:44:26.770Z,98543.19
2022-08-29T11:46:44.627Z,98545.38
2022-08-29T11:49:28.067Z,98541.28
2022-08-29T11:51:37.600Z,98546.69
2022-08-29T11:53:42.525Z,98542.34
2022-08-29T11:55:49.370Z,98536.78
2022-08-29T11:58:11.854Z,98539.81
2022-08-29T12:00:40.423Z,98540.81
2022-08-29T12:02:48.915Z,98539.91
2022-08-29T12:05:02.097Z,98531.91
2022-08-29T12:07:07.598Z,98528.41
2022-08-29T12:09:29.942Z,98528.94
2022-08-29T12:12:04.786Z,98524.81
2022-08-29T12:14:09.696Z,98527.63
2022-08-29T12:16:16.662Z,98528.47
2022-08-29T12:18:37.603Z,98520.22
2022-08-29T12:20:48.653Z,98524.94
2022-08-29T12:23:00.310Z,98525.88
2022-08-29T12:25:31.210Z,98517.50
2022-08-29T12:28:08.413Z,98519.78
2022-08-29T12:30:16.253Z,98522.56
2022-08-29T12:32:44.527Z,98516.50
2022-08-29T12:35:03.735Z,98511.88
2022-08-29T12:37:40.511Z,98524.75
2022-08-29T12:40:11.369Z,98523.44
2022-08-29T12:42:26.010Z,98523.53
2022-08-29T12:44:36.829Z,98506.41
2022-08-29T12:46:44.250Z,98501.53
2022-08-29T12:48:58.070Z,98501.75
2022-08-29T12:51:04.811Z,98495.56
2022-08-29T12:53:23.517Z,98492.53
2022-08-29T12:55:31.176Z,98500.16
2022-08-29T12:57:39.694Z,98492.06
2022-08-29T12:59:47.936Z,98488.66
2022-08-29T13:01:56.312Z,98489.03
2022-08-29T13:04:07.958Z,98491.03
2022-08-29T13:06:16.667Z,98495.22
2022-08-29T13:08:33.822Z,98494.91
2022-08-29T13:10:40.454Z,98492.91
2022-08-29T13:12:45.364Z,98492.47
2022-08-29T13:14:56.829Z,98479.03
2022-08-29T13:17:01.813Z,98485.16
2022-08-29T13:19:11.162Z,98481.03
2022-08-29T13:21:24.615Z,98482.47
2022-08-29T13:23:34.297Z,98471.22
2022-08-29T13:25:45.584Z,98472.78
2022-08-29T13:27:51.540Z,98460.00
2022-08-29T13:30:02.664Z,98465.28
2022-08-29T13:32:24.199Z,98467.00
2022-08-29T13:34:29.245Z,98465.63
2022-08-29T13:36:39.956Z,98461.03
2022-08-29T13:38:48.568Z,98453.25
2022-08-29T13:40:55.363Z,98449.63
2022-08-29T13:43:02.141Z,98449.00
2022-08-29T13:45:22.395Z,98447.16
2022-08-29T13:47:29.602Z,98450.94
2022-08-29T13:49:37.017Z,98446.16
2022-08-29T13:51:41.888Z,98445.34
2022-08-29T13:53:49.338Z,98437.88
2022-08-29T13:55:54.150Z,98448.47
2022-08-29T13:58:00.029Z,98439.50
2022-08-29T14:00:07.651Z,98442.28
2022-08-29T14:02:12.875Z,98435.41
2022-08-29T14:06:42.883Z,98436.47
2022-08-29T14:08:50.853Z,98431.66
2022-08-29T14:10:55.706Z,98423.34
2022-08-29T14:13:00.309Z,98427.59
2022-08-29T14:15:09.396Z,98427.47
2022-08-29T14:17:18.027Z,98427.63
2022-08-29T14:19:23.276Z,98427.66
2022-08-29T14:21:27.909Z,98422.16
2022-08-29T14:23:32.834Z,98423.38
2022-08-29T14:25:40.050Z,98422.53
2022-08-29T14:27:47.819Z,98421.88
2022-08-29T14:29:53.239Z,98424.22
2022-08-29T14:31:58.397Z,98413.88
2022-08-29T14:34:03.518Z,98411.00
2022-08-29T14:36:09.303Z,98403.66
2022-08-29T14:38:14.848Z,98407.66
2022-08-29T14:40:21.948Z,98404.00
2022-08-29T14:42:29.693Z,98405.00
2022-08-29T14:44:34.709Z,98404.34
2022-08-29T14:46:39.597Z,98411.34
2022-08-29T14:48:44.227Z,98404.16
2022-08-29T14:50:49.287Z,98408.63
2022-08-29T14:52:53.921Z,98406.66
2022-08-29T14:54:58.753Z,98415.00
2022-08-29T14:57:03.722Z,98411.31
2022-08-29T14:59:11.214Z,98408.78
2022-08-29T15:01:16.181Z,98398.56
2022-08-29T15:03:20.985Z,98396.91
2022-08-29T15:05:26.052Z,98397.03
2022-08-29T15:07:30.901Z,98402.00
2022-08-29T15:09:35.862Z,98396.94
2022-08-29T15:11:40.755Z,98395.88
2022-08-29T15:13:46.723Z,98402.16
2022-08-29T15:15:57.308Z,98390.41
2022-08-29T15:18:05.439Z,98393.25
2022-08-29T15:20:35.609Z,98391.00
2022-08-29T15:22:37.339Z,98392.41
2022-08-29T15:24:42.796Z,98397.28
2022-08-29T15:26:47.709Z,98388.38
2022-08-29T15:28:54.850Z,98388.13
2022-08-29T15:31:02.297Z,98381.00
2022-08-29T15:33:07.530Z,98389.63
2022-08-29T15:35:15.185Z,98389.09
2022-08-29T15:37:20.502Z,98392.50
2022-08-29T15:39:27.329Z,98385.31
2022-08-29T15:41:32.547Z,98394.19
2022-08-29T15:43:37.379Z,98387.66
2022-08-29T15:45:42.020Z,98385.31
2022-08-29T15:47:49.463Z,98377.00
2022-08-29T15:49:54.388Z,98374.84
2022-08-29T15:51:59.332Z,98375.97
2022-08-29T15:54:05.642Z,98375.34
2022-08-29T15:56:11.099Z,98381.00
2022-08-29T15:58:16.119Z,98378.09
2022-08-29T16:00:29.890Z,98374.97
2022-08-29T16:02:35.779Z,98374.72
2022-08-29T16:04:47.562Z,98374.53
2022-08-29T16:06:53.214Z,98368.16
2022-08-29T16:08:58.125Z,98370.84
2022-08-29T16:11:03.605Z,98367.44
2022-08-29T16:13:08.712Z,98369.63
2022-08-29T16:15:16.823Z,98368.41
2022-08-29T16:17:21.633Z,98367.97
2022-08-29T16:19:26.312Z,98367.84
2022-08-29T16:21:35.554Z,98362.91
2022-08-29T16:23:40.658Z,98370.69
2022-08-29T16:25:45.514Z,98367.50
2022-08-29T16:27:50.646Z,98368.03
2022-08-29T16:29:56.518Z,98362.19
2022-08-29T16:32:01.370Z,98365.72
2022-08-29T16:34:06.303Z,98359.38
2022-08-29T16:36:10.939Z,98358.56
2022-08-29T16:38:18.723Z,98359.53
2022-08-29T16:40:23.906Z,98353.19
2022-08-29T16:42:30.734Z,98360.88
2022-08-29T16:44:35.750Z,98355.03
2022-08-29T16:46:41.023Z,98356.34
2022-08-29T16:48:46.328Z,98356.16
2022-08-29T16:50:54.061Z,98356.84
2022-08-29T16:52:58.983Z,98360.66
2022-08-29T16:55:06.498Z,98362.66
2022-08-29T16:57:11.402Z,98360.75
2022-08-29T16:59:14.063Z,98356.75
2022-08-29T17:01:19.014Z,98356.06
2022-08-29T17:03:23.657Z,98354.88
2022-08-29T17:05:28.272Z,98352.69
2022-08-29T17:07:33.026Z,98364.88
2022-08-29T17:09:34.896Z,98359.84
2022-08-29T17:11:39.365Z,98350.34
2022-08-29T17:13:41.914Z,98356.81
2022-08-29T17:15:43.666Z,98355.47
2022-08-29T17:17:48.546Z,98361.94
2022-08-29T17:19:53.135Z,98360.59
2022-08-29T17:21:57.929Z,98356.91
2022-08-29T17:24:02.680Z,98360.41
2022-08-29T17:26:09.053Z,98354.41
2022-08-29T17:28:25.019Z,98358.22
2022-08-29T17:30:30.665Z,98354.03
2022-08-29T17:32:35.284Z,98354.34
2022-08-29T17:34:40.200Z,98355.78
2022-08-29T17:36:45.894Z,98356.28
2022-08-29T17:38:51.314Z,98357.56
2022-08-29T17:40:58.471Z,98355.91
2022-08-29T17:43:03.488Z,98357.06
2022-08-29T17:45:11.040Z,98353.06
2022-08-29T17:47:15.904Z,98347.50
2022-08-29T17:49:20.539Z,98353.47
2022-08-29T17:51:25.196Z,98359.28
2022-08-29T17:53:30.022Z,98358.91
2022-08-29T17:55:34.720Z,98348.56
2022-08-29T17:57:39.392Z,98351.53
2022-08-29T17:59:44.957Z,98346.00
2022-08-29T18:01:52.632Z,98347.59
2022-08-29T18:03:57.365Z,98355.22
2022-08-29T18:06:01.976Z,98353.66
2022-08-29T18:08:06.874Z,98359.28
2022-08-29T18:10:12.746Z,98357.81
2022-08-29T18:12:17.423Z,98363.06
2022-08-29T18:14:23.818Z,98361.66
2022-08-29T18:16:28.533Z,98366.34
2022-08-29T18:18:35.755Z,98378.56
2022-08-29T18:20:43.351Z,98382.53
2022-08-29T18:22:48.604Z,98374.69
2022-08-29T18:24:53.626Z,98380.31
2022-08-29T18:26:58.401Z,98381.16
2022-08-29T18:29:03.295Z,98390.25
2022-08-29T18:31:08.468Z,98391.44
2022-08-29T18:33:13.134Z,98391.75
2022-08-29T18:35:20.381Z,98395.84
2022-08-29T18:37:25.124Z,98394.59
2022-08-29T18:39:29.753Z,98400.38
2022-08-29T18:41:34.907Z,98395.66
2022-08-29T18:43:39.616Z,98396.09
2022-08-29T18:45:44.306Z,98392.84
2022-08-29T18:47:48.982Z,98396.81
2022-08-29T18:50:06.058Z,98399.91
2022-08-29T18:52:13.998Z,98401.31
2022-08-29T18:54:19.317Z,98413.69
2022-08-29T18:56:25.183Z,98410.63
2022-08-29T18:58:34.067Z,98417.53
2022-08-29T19:00:39.257Z,98414.91
2022-08-29T19:02:44.267Z,98414.78
2022-08-29T19:04:49.596Z,98419.56
2022-08-29T19:06:54.333Z,98417.34
2022-08-29T19:09:01.522Z,98425.47
2022-08-29T19:11:06.869Z,98422.22
2022-08-29T19:13:11.822Z,98423.34
2022-08-29T19:15:17.802Z,98426.28
2022-08-29T19:17:22.889Z,98431.88
2022-08-29T19:19:47.724Z,98422.53
2022-08-29T19:21:54.716Z,98430.91
2022-08-29T19:24:01.962Z,98427.88
2022-08-29T19:26:08.045Z,98426.44
2022-08-29T19:28:13.462Z,98424.25
2022-08-29T19:30:19.632Z,98429.84
2022-08-29T19:32:25.415Z,98432.06
2022-08-29T19:34:30.319Z,98435.00
2022-08-29T19:36:34.966Z,98432.75
2022-08-29T19:38:41.354Z,98431.50
2022-08-29T19:40:49.542Z,98427.59
2022-08-29T19:42:55.889Z,98428.97
2022-08-29T19:45:01.539Z,98425.34
2022-08-29T19:47:08.099Z,98436.41
2022-08-29T19:49:13.153Z,98438.72
2022-08-29T19:51:18.612Z,98439.28
2022-08-29T19:53:26.386Z,98442.75
2022-08-29T19:55:31.587Z,98443.84
2022-08-29T19:57:38.810Z,98437.88
2022-08-29T19:59:44.393Z,98448.75
2022-08-29T20:01:49.112Z,98449.88
2022-08-29T20:03:53.902Z,98445.78
2022-08-29T20:05:59.673Z,98443.84
2022-08-29T20:08:05.690Z,98445.06
2022-08-29T20:10:10.972Z,98440.19
2022-08-29T20:12:15.586Z,98447.69
2022-08-29T20:14:23.070Z,98441.66
2022-08-29T20:16:29.568Z,98444.88
2022-08-29T20:18:34.397Z,98449.44
2022-08-29T20:20:39.035Z,98445.28
2022-08-29T20:22:44.071Z,98447.50
2022-08-29T20:24:48.745Z,98437.25
2022-08-29T20:26:53.506Z,98447.13
2022-08-29T20:29:02.290Z,98451.88
2022-08-29T20:31:09.802Z,98448.75
2022-08-29T20:33:14.584Z,98446.53
2022-08-29T20:35:39.265Z,98454.75
2022-08-29T20:37:42.078Z,98455.13
2022-08-29T20:39:49.035Z,98451.06
2022-08-29T20:41:55.602Z,98458.56
2022-08-29T20:44:06.941Z,98449.06
2022-08-29T20:46:14.849Z,98461.47
2022-08-29T20:48:19.479Z,98464.13
2022-08-29T20:50:24.159Z,98465.22
2022-08-29T20:52:29.130Z,98467.03
2022-08-29T20:54:34.241Z,98465.91
2022-08-29T20:56:38.906Z,98473.84
2022-08-29T20:58:43.656Z,98472.16
2022-08-29T21:00:51.303Z,98469.19
2022-08-29T21:03:10.968Z,98469.81
2022-08-29T21:05:28.022Z,98473.50
2022-08-29T21:07:32.633Z,98474.59
2022-08-29T21:09:37.797Z,98475.56
2022-08-29T21:11:42.436Z,98478.34
2022-08-29T21:13:52.528Z,98478.22
2022-08-29T21:15:57.845Z,98478.06
2022-08-29T21:18:06.699Z,98472.78
2022-08-29T21:20:12.470Z,98482.78
2022-08-29T21:22:18.939Z,98480.28
2022-08-29T21:24:26.337Z,98479.69
2022-08-29T21:26:31.176Z,98478.25
2022-08-29T21:28:37.991Z,98479.84
2022-08-29T21:30:45.643Z,98480.94
2022-08-29T21:32:50.432Z,98492.38
2022-08-29T21:34:57.513Z,98488.78
2022-08-29T21:37:02.172Z,98489.59
2022-08-29T21:39:07.857Z,98480.22
2022-08-29T21:41:13.071Z,98486.72
2022-08-29T21:43:17.912Z,98487.00
2022-08-29T21:45:22.745Z,98486.50
2022-08-29T21:47:27.300Z,98486.50
2022-08-29T21:49:33.087Z,98487.50
2022-08-29T21:51:40.609Z,98482.44
2022-08-29T21:53:45.190Z,98483.78
2022-08-29T21:55:49.721Z,98482.09
2022-08-29T21:58:01.196Z,98481.88
2022-08-29T22:00:06.945Z,98483.78
2022-08-29T22:02:11.611Z,98484.88
2022-08-29T22:04:19.137Z,98485.72
2022-08-29T22:06:33.816Z,98483.19
2022-08-29T22:08:40.971Z,98494.88
2022-08-29T22:10:50.847Z,98494.25
2022-08-29T22:12:55.801Z,98494.00
2022-08-29T22:15:12.790Z,98496.63
2022-08-29T22:17:18.319Z,98501.06
2022-08-29T22:19:22.896Z,98500.22
2022-08-29T22:21:28.005Z,98501.75
2022-08-29T22:23:32.671Z,98503.69
2022-08-29T22:25:39.849Z,98500.91
2022-08-29T22:27:45.451Z,98514.38
2022-08-29T22:29:49.998Z,98512.47
2022-08-29T22:31:55.845Z,98514.72
2022-08-29T22:34:00.454Z,98512.81
2022-08-29T22:36:05.436Z,98517.75
2022-08-29T22:38:10.074Z,98515.22
2022-08-29T22:40:16.630Z,98514.47
2022-08-29T22:42:23.833Z,98514.59
2022-08-29T22:45:03.259Z,98514.25
2022-08-29T22:46:54.097Z,98508.97
2022-08-29T22:48:58.837Z,98506.22
2022-08-29T22:51:03.415Z,98505.97
2022-08-29T22:53:08.172Z,98503.00
2022-08-29T22:55:15.408Z,98503.09
2022-08-29T22:57:20.646Z,98509.13
2022-08-29T22:59:27.841Z,98503.69
2022-08-29T23:01:33.235Z,98503.59
2022-08-29T23:03:38.064Z,98506.09
2022-08-29T23:05:42.685Z,98501.53
2022-08-29T23:07:48.037Z,98504.78
2022-08-29T23:09:53.306Z,98503.94
2022-08-29T23:11:57.861Z,98496.88
2022-08-29T23:14:03.117Z,98495.31
2022-08-29T23:16:11.500Z,98494.47
2022-08-29T23:18:16.209Z,98499.75
2022-08-29T23:20:20.799Z,98496.41
2022-08-29T23:22:25.776Z,98495.91
2022-08-29T23:24:30.441Z,98490.25
2022-08-29T23:26:35.532Z,98488.69
2022-08-29T23:28:40.458Z,98495.28
2022-08-29T23:30:47.007Z,98496.56
2022-08-29T23:32:54.933Z,98488.28
2022-08-29T23:34:59.615Z,98497.47
2022-08-29T23:37:04.570Z,98494.22
2022-08-29T23:39:09.459Z,98491.09
2022-08-29T23:41:15.515Z,98493.72
2022-08-29T23:43:21.118Z,98496.09
2022-08-29T23:45:25.878Z,98498.84
2022-08-29T23:47:31.867Z,98495.72
2022-08-29T23:49:39.045Z,98491.38
2022-08-29T23:51:43.664Z,98494.84
2022-08-29T23:53:48.637Z,98496.44
2022-08-29T23:55:53.528Z,98496.56
2022-08-29T23:57:58.114Z,98502.16
